createdAt,value
2017-04-10T00:00:37.207Z,56.82
2017-04-10T00:01:37.292Z,56.23
2017-04-10T00:02:36.606Z,48.55
2017-04-10T00:03:36.662Z,51.20
2017-04-10T00:04:36.032Z,50.63
2017-04-10T00:05:35.354Z,54.62
2017-04-10T00:06:34.729Z,54.80
2017-04-10T00:07:34.024Z,59.98
2017-04-10T00:08:33.426Z,51.10
2017-04-10T00:09:32.725Z,53.43
2017-04-10T00:10:31.982Z,56.12
2017-04-10T00:11:31.313Z,54.37
2017-04-10T00:12:30.623Z,48.68
2017-04-10T00:13:30.686Z,57.38
2017-04-10T00:14:29.984Z,51.60
2017-04-10T00:15:29.293Z,53.33
2017-04-10T00:16:28.633Z,57.68
2017-04-10T00:17:27.920Z,57.62
2017-04-10T00:18:27.237Z,54.87
2017-04-10T00:19:26.502Z,53.90
2017-04-10T00:20:25.777Z,52.35
2017-04-10T00:21:25.095Z,53.70
2017-04-10T00:22:24.405Z,55.60
2017-04-10T00:23:23.703Z,54.12
2017-04-10T00:24:28.387Z,57.58
2017-04-10T00:25:28.299Z,55.93
2017-04-10T00:26:27.606Z,66.12
2017-04-10T00:27:26.922Z,52.13
2017-04-10T00:28:26.989Z,54.87
2017-04-10T00:29:26.262Z,57.12
2017-04-10T00:30:25.578Z,59.78
2017-04-10T00:31:24.912Z,59.18
2017-04-10T00:32:25.006Z,57.88
2017-04-10T00:33:24.361Z,58.53
2017-04-10T00:34:24.744Z,60.12
2017-04-10T00:35:24.798Z,57.70
2017-04-10T00:36:24.154Z,58.08
2017-04-10T00:37:23.485Z,59.98
2017-04-10T00:38:22.764Z,57.48
2017-04-10T00:39:22.064Z,58.77
2017-04-10T00:40:21.404Z,51.92
2017-04-10T00:41:21.481Z,63.72
2017-04-10T00:42:20.840Z,63.57
2017-04-10T00:43:20.159Z,63.70
2017-04-10T00:44:19.442Z,63.63
2017-04-10T00:45:19.015Z,62.53
2017-04-10T00:46:19.746Z,59.08
2017-04-10T00:47:19.271Z,64.23
2017-04-10T00:48:18.589Z,58.70
2017-04-10T00:49:19.392Z,57.22
2017-04-10T00:50:21.225Z,54.13
2017-04-10T00:51:23.605Z,70.68
2017-04-10T00:52:24.421Z,63.23
2017-04-10T00:53:23.816Z,61.35
2017-04-10T00:54:23.980Z,54.25
2017-04-10T00:55:23.750Z,59.97
2017-04-10T00:56:23.122Z,61.35
2017-04-10T00:57:23.533Z,57.25
2017-04-10T00:58:23.649Z,63.40
2017-04-10T00:59:22.968Z,55.85
2017-04-10T01:00:22.339Z,63.00
2017-04-10T01:01:21.620Z,58.27
2017-04-10T01:02:21.217Z,62.95
2017-04-10T01:03:21.228Z,67.37
2017-04-10T01:04:21.359Z,58.20
2017-04-10T01:05:21.457Z,62.40
2017-04-10T01:06:21.526Z,61.82
2017-04-10T01:07:20.869Z,67.28
2017-04-10T01:08:20.716Z,68.45
2017-04-10T01:09:20.022Z,63.32
2017-04-10T01:10:19.339Z,64.17
2017-04-10T01:11:19.385Z,60.30
2017-04-10T01:12:18.667Z,60.52
2017-04-10T01:13:17.989Z,68.22
2017-04-10T01:14:17.304Z,63.98
2017-04-10T01:15:17.353Z,65.73
2017-04-10T01:16:16.647Z,65.22
2017-04-10T01:17:16.031Z,66.78
2017-04-10T01:18:15.286Z,70.88
2017-04-10T01:19:14.569Z,69.22
2017-04-10T01:20:13.865Z,69.07
2017-04-10T01:21:13.861Z,66.43
2017-04-10T01:22:13.175Z,70.22
2017-04-10T01:23:13.176Z,67.98
2017-04-10T01:24:12.424Z,67.82
2017-04-10T01:25:11.678Z,66.42
2017-04-10T01:26:10.930Z,67.67
2017-04-10T01:27:10.556Z,67.25
2017-04-10T01:28:09.813Z,66.97
2017-04-10T01:29:09.131Z,64.97
2017-04-10T01:30:09.138Z,67.53
2017-04-10T01:31:09.213Z,68.03
2017-04-10T01:32:08.553Z,64.02
2017-04-10T01:33:07.853Z,59.80
2017-04-10T01:34:07.160Z,58.70
2017-04-10T01:35:06.446Z,70.35
2017-04-10T01:36:05.688Z,62.90
2017-04-10T01:37:04.950Z,66.83
2017-04-10T01:38:04.356Z,58.57
2017-04-10T01:39:03.668Z,69.25
2017-04-10T01:40:02.934Z,63.67
2017-04-10T01:41:02.243Z,67.03
2017-04-10T01:42:02.276Z,64.40
2017-04-10T01:43:01.624Z,71.52
2017-04-10T01:44:00.917Z,66.15
2017-04-10T01:45:00.160Z,72.07
2017-04-10T01:45:59.462Z,68.02
2017-04-10T01:46:58.817Z,75.47
2017-04-10T01:47:58.097Z,66.37
2017-04-10T01:48:58.153Z,71.28
2017-04-10T01:49:57.478Z,69.30
2017-04-10T01:50:57.056Z,68.18
2017-04-10T01:51:56.349Z,76.78
2017-04-10T01:52:55.660Z,63.23
2017-04-10T01:53:55.700Z,76.18
2017-04-10T01:54:55.031Z,60.88
2017-04-10T01:55:54.277Z,69.22
2017-04-10T01:56:53.563Z,66.28
2017-04-10T01:57:52.869Z,69.17
2017-04-10T01:58:52.160Z,74.62
2017-04-10T01:59:51.449Z,68.53
2017-04-10T02:00:50.787Z,70.40
2017-04-10T02:01:50.133Z,66.23
2017-04-10T02:02:49.447Z,77.20
2017-04-10T02:03:48.772Z,74.77
2017-04-10T02:04:48.801Z,70.78
2017-04-10T02:05:48.134Z,77.38
2017-04-10T02:06:47.442Z,69.85
2017-04-10T02:07:46.809Z,71.87
2017-04-10T02:08:46.099Z,73.17
2017-04-10T02:09:45.437Z,63.87
2017-04-10T02:10:45.436Z,75.15
2017-04-10T02:11:45.870Z,68.53
2017-04-10T02:12:45.192Z,68.10
2017-04-10T02:13:44.509Z,67.55
2017-04-10T02:14:44.514Z,72.75
2017-04-10T02:15:43.809Z,67.93
2017-04-10T02:16:43.077Z,72.92
2017-04-10T02:17:42.983Z,68.97
2017-04-10T02:18:42.332Z,75.03
2017-04-10T02:19:42.352Z,68.45
2017-04-10T02:20:41.602Z,73.12
2017-04-10T02:21:46.879Z,70.83
2017-04-10T02:22:46.198Z,69.22
2017-04-10T02:23:45.546Z,73.53
2017-04-10T02:24:44.886Z,66.12
2017-04-10T02:25:44.132Z,75.17
2017-04-10T02:26:43.517Z,77.22
2017-04-10T02:27:44.102Z,77.12
2017-04-10T02:28:44.201Z,77.13
2017-04-10T02:29:44.850Z,74.95
2017-04-10T02:30:44.865Z,75.12
2017-04-10T02:31:44.880Z,71.80
2017-04-10T02:32:44.940Z,67.92
2017-04-10T02:33:44.413Z,76.12
2017-04-10T02:34:43.848Z,77.55
2017-04-10T02:35:43.101Z,73.52
2017-04-10T02:36:42.404Z,75.57
2017-04-10T02:37:42.078Z,71.80
2017-04-10T02:38:41.385Z,74.75
2017-04-10T02:39:40.694Z,76.05
2017-04-10T02:40:39.983Z,76.28
2017-04-10T02:41:39.274Z,80.97
2017-04-10T02:42:39.335Z,76.18
2017-04-10T02:43:38.640Z,66.60
2017-04-10T02:44:37.909Z,73.58
2017-04-10T02:45:37.149Z,73.53
2017-04-10T02:46:36.458Z,75.53
2017-04-10T02:47:35.730Z,65.17
2017-04-10T02:48:35.418Z,72.02
2017-04-10T02:49:37.152Z,83.07
2017-04-10T02:50:36.622Z,74.48
2017-04-10T02:51:35.898Z,69.57
2017-04-10T02:52:38.347Z,69.12
2017-04-10T02:53:38.731Z,72.15
2017-04-10T02:54:38.041Z,66.65
2017-04-10T02:55:37.318Z,70.18
2017-04-10T02:56:36.636Z,79.72
2017-04-10T02:57:36.654Z,71.30
2017-04-10T02:58:36.709Z,76.92
2017-04-10T02:59:36.772Z,75.72
2017-04-10T03:00:36.806Z,78.52
2017-04-10T03:01:36.091Z,76.62
2017-04-10T03:02:35.395Z,74.28
2017-04-10T03:03:34.958Z,71.37
2017-04-10T03:04:34.336Z,70.87
2017-04-10T03:05:33.699Z,70.27
2017-04-10T03:06:32.959Z,75.55
2017-04-10T03:07:32.247Z,77.73
2017-04-10T03:08:31.862Z,69.95
2017-04-10T03:09:31.158Z,71.83
2017-04-10T03:10:30.434Z,70.75
2017-04-10T03:11:29.736Z,76.37
2017-04-10T03:12:29.030Z,71.23
2017-04-10T03:13:28.319Z,75.30
2017-04-10T03:14:27.657Z,72.12
2017-04-10T03:15:26.986Z,76.47
2017-04-10T03:16:26.255Z,72.67
2017-04-10T03:17:25.528Z,65.53
2017-04-10T03:18:25.560Z,72.08
2017-04-10T03:19:24.879Z,75.45
2017-04-10T03:20:24.245Z,69.80
2017-04-10T03:21:23.483Z,66.82
2017-04-10T03:22:23.532Z,71.82
2017-04-10T03:23:22.801Z,67.25
2017-04-10T03:24:22.179Z,73.45
2017-04-10T03:25:22.224Z,71.70
2017-04-10T03:26:21.505Z,67.03
2017-04-10T03:27:20.764Z,67.43
2017-04-10T03:28:20.811Z,76.40
2017-04-10T03:29:20.137Z,73.43
2017-04-10T03:30:19.424Z,68.48
2017-04-10T03:31:18.720Z,70.83
2017-04-10T03:32:18.034Z,71.12
2017-04-10T03:33:18.130Z,77.47
2017-04-10T03:34:17.388Z,73.47
2017-04-10T03:35:16.714Z,76.33
2017-04-10T03:36:16.775Z,71.17
2017-04-10T03:37:16.053Z,66.18
2017-04-10T03:38:15.333Z,62.77
2017-04-10T03:39:14.612Z,73.67
2017-04-10T03:40:14.640Z,65.40
2017-04-10T03:41:13.931Z,72.52
2017-04-10T03:42:13.223Z,67.73
2017-04-10T03:43:12.531Z,71.40
2017-04-10T03:44:11.828Z,64.28
2017-04-10T03:45:11.258Z,65.27
2017-04-10T03:46:11.325Z,74.47
2017-04-10T03:47:10.653Z,69.93
2017-04-10T03:48:10.707Z,72.12
2017-04-10T03:49:10.028Z,76.72
2017-04-10T03:50:09.363Z,78.67
2017-04-10T03:51:08.664Z,72.27
2017-04-10T03:52:07.959Z,67.45
2017-04-10T03:53:07.227Z,67.93
2017-04-10T03:54:07.248Z,75.82
2017-04-10T03:55:06.644Z,66.52
2017-04-10T03:56:05.966Z,72.87
2017-04-10T03:57:05.229Z,72.97
2017-04-10T03:58:04.565Z,72.45
2017-04-10T03:59:03.885Z,74.87
2017-04-10T04:00:03.987Z,77.07
2017-04-10T04:01:03.315Z,68.97
2017-04-10T04:02:03.588Z,71.25
2017-04-10T04:03:03.597Z,72.15
2017-04-10T04:04:03.707Z,69.73
2017-04-10T04:05:03.776Z,72.45
2017-04-10T04:06:03.037Z,75.58
2017-04-10T04:07:02.317Z,68.57
2017-04-10T04:08:01.665Z,70.28
2017-04-10T04:09:00.939Z,68.08
2017-04-10T04:10:00.234Z,71.83
2017-04-10T04:10:59.863Z,72.10
2017-04-10T04:12:00.233Z,80.87
2017-04-10T04:12:59.540Z,75.30
2017-04-10T04:13:58.857Z,73.37
2017-04-10T04:14:58.923Z,70.45
2017-04-10T04:15:58.237Z,82.13
2017-04-10T04:16:58.511Z,78.03
2017-04-10T04:17:57.762Z,79.40
2017-04-10T04:18:57.786Z,73.80
2017-04-10T04:19:57.055Z,80.72
2017-04-10T04:20:57.088Z,82.95
2017-04-10T04:21:56.391Z,80.13
2017-04-10T04:22:55.699Z,74.97
2017-04-10T04:23:55.025Z,83.07
2017-04-10T04:24:55.082Z,75.95
2017-04-10T04:25:54.432Z,83.63
2017-04-10T04:26:54.478Z,73.73
2017-04-10T04:27:53.756Z,75.43
2017-04-10T04:28:53.041Z,69.88
2017-04-10T04:29:52.339Z,75.25
2017-04-10T04:30:51.660Z,71.72
2017-04-10T04:31:50.952Z,73.75
2017-04-10T04:32:50.252Z,71.60
2017-04-10T04:33:49.560Z,77.63
2017-04-10T04:34:48.836Z,75.93
2017-04-10T04:35:48.169Z,80.72
2017-04-10T04:36:47.465Z,74.22
2017-04-10T04:37:46.746Z,80.10
2017-04-10T04:38:46.764Z,82.87
2017-04-10T04:39:46.085Z,70.92
2017-04-10T04:40:45.394Z,69.57
2017-04-10T04:41:44.728Z,79.72
2017-04-10T04:42:44.135Z,65.47
2017-04-10T04:43:49.621Z,67.37
2017-04-10T04:44:48.955Z,80.57
2017-04-10T04:45:48.256Z,79.57
2017-04-10T04:46:47.508Z,75.93
2017-04-10T04:47:47.584Z,76.55
2017-04-10T04:48:46.887Z,81.58
2017-04-10T04:49:46.179Z,72.73
2017-04-10T04:50:45.774Z,75.63
2017-04-10T04:51:45.059Z,75.68
2017-04-10T04:52:44.323Z,78.95
2017-04-10T04:53:43.618Z,75.68
2017-04-10T04:54:43.634Z,81.18
2017-04-10T04:55:42.968Z,69.07
2017-04-10T04:56:42.284Z,73.72
2017-04-10T04:57:41.557Z,78.62
2017-04-10T04:58:40.913Z,75.17
2017-04-10T04:59:40.204Z,76.78
2017-04-10T05:00:40.271Z,77.48
2017-04-10T05:01:39.588Z,72.85
2017-04-10T05:02:39.025Z,79.15
2017-04-10T05:03:49.117Z,84.08
2017-04-10T05:04:49.276Z,77.68
2017-04-10T05:05:49.288Z,76.08
2017-04-10T05:06:48.614Z,78.63
2017-04-10T05:07:47.908Z,87.67
2017-04-10T05:08:47.191Z,77.90
2017-04-10T05:09:46.513Z,79.47
2017-04-10T05:10:45.825Z,78.83
2017-04-10T05:11:46.122Z,72.87
2017-04-10T05:12:45.682Z,80.98
2017-04-10T05:13:46.199Z,83.13
2017-04-10T05:14:45.527Z,80.15
2017-04-10T05:15:44.927Z,74.70
2017-04-10T05:16:45.413Z,91.23
2017-04-10T05:17:45.804Z,79.63
2017-04-10T05:18:45.124Z,85.00
2017-04-10T05:19:49.783Z,83.45
2017-04-10T05:20:49.822Z,84.92
2017-04-10T05:21:51.003Z,75.33
2017-04-10T05:22:50.324Z,75.30
2017-04-10T05:23:50.346Z,83.43
2017-04-10T05:24:49.735Z,76.27
2017-04-10T05:25:49.057Z,79.80
2017-04-10T05:26:48.379Z,77.87
2017-04-10T05:27:47.707Z,88.50
2017-04-10T05:28:47.112Z,84.48
2017-04-10T05:29:46.451Z,78.82
2017-04-10T05:30:45.850Z,80.47
2017-04-10T05:31:45.237Z,83.75
2017-04-10T05:32:44.600Z,82.05
2017-04-10T05:33:43.988Z,88.20
2017-04-10T05:34:43.307Z,82.72
2017-04-10T05:35:43.565Z,85.18
2017-04-10T05:36:42.922Z,90.43
2017-04-10T05:37:43.037Z,86.55
2017-04-10T05:38:43.195Z,91.30
2017-04-10T05:39:44.068Z,89.62
2017-04-10T05:40:44.272Z,81.25
2017-04-10T05:41:45.185Z,81.03
2017-04-10T05:42:44.489Z,95.32
2017-04-10T05:43:44.520Z,89.83
2017-04-10T05:44:44.507Z,92.78
2017-04-10T05:45:44.151Z,84.25
2017-04-10T05:46:43.500Z,85.55
2017-04-10T05:47:42.858Z,85.72
2017-04-10T05:48:42.172Z,88.80
2017-04-10T05:49:41.778Z,88.02
2017-04-10T05:50:41.100Z,87.03
2017-04-10T05:51:40.433Z,85.85
2017-04-10T05:52:39.800Z,88.83
2017-04-10T05:53:39.735Z,88.82
2017-04-10T05:54:39.084Z,93.82
2017-04-10T05:55:38.450Z,89.67
2017-04-10T05:56:38.522Z,89.03
2017-04-10T05:57:37.987Z,79.18
2017-04-10T05:58:37.321Z,88.88
2017-04-10T05:59:37.467Z,82.47
2017-04-10T06:00:36.842Z,83.07
2017-04-10T06:01:36.997Z,75.33
2017-04-10T06:02:36.383Z,86.42
2017-04-10T06:03:35.714Z,89.10
2017-04-10T06:04:35.026Z,82.88
2017-04-10T06:05:35.505Z,83.22
2017-04-10T06:06:35.106Z,91.82
2017-04-10T06:07:34.434Z,83.65
2017-04-10T06:08:34.992Z,83.42
2017-04-10T06:09:34.305Z,76.57
2017-04-10T06:10:33.686Z,75.57
2017-04-10T06:11:33.028Z,81.15
2017-04-10T06:12:33.125Z,73.05
2017-04-10T06:13:33.158Z,84.37
2017-04-10T06:14:32.480Z,86.78
2017-04-10T06:15:31.830Z,80.30
2017-04-10T06:16:31.888Z,88.95
2017-04-10T06:17:31.611Z,79.90
2017-04-10T06:18:32.409Z,73.32
2017-04-10T06:19:31.719Z,69.13
2017-04-10T06:20:31.082Z,71.08
2017-04-10T06:21:30.373Z,81.87
2017-04-10T06:22:29.769Z,68.05
2017-04-10T06:23:29.098Z,71.98
2017-04-10T06:24:28.393Z,73.58
2017-04-10T06:25:28.464Z,72.62
2017-04-10T06:26:27.774Z,63.47
2017-04-10T06:27:27.142Z,67.83
2017-04-10T06:28:26.498Z,68.67
2017-04-10T06:29:25.818Z,69.43
2017-04-10T06:30:25.140Z,59.98
2017-04-10T06:31:24.501Z,61.63
2017-04-10T06:32:23.876Z,72.08
2017-04-10T06:33:23.206Z,60.27
2017-04-10T06:34:23.162Z,57.42
2017-04-10T06:35:22.423Z,60.02
2017-04-10T06:36:21.769Z,58.37
2017-04-10T06:37:21.063Z,51.58
2017-04-10T06:38:20.424Z,57.55
2017-04-10T06:39:19.723Z,57.25
2017-04-10T06:40:19.046Z,57.85
2017-04-10T06:41:18.593Z,53.98
2017-04-10T06:42:17.919Z,57.87
2017-04-10T06:43:17.317Z,51.90
2017-04-10T06:44:16.635Z,57.55
2017-04-10T06:45:15.927Z,54.63
2017-04-10T06:46:15.224Z,54.03
2017-04-10T06:47:15.248Z,51.85
2017-04-10T06:48:15.280Z,44.22
2017-04-10T06:49:14.628Z,54.63
2017-04-10T06:50:13.991Z,53.58
2017-04-10T06:51:13.340Z,66.23
2017-04-10T06:52:13.109Z,54.28
2017-04-10T06:53:14.236Z,53.83
2017-04-10T06:54:13.580Z,53.35
2017-04-10T06:55:12.858Z,38.57
2017-04-10T06:56:12.386Z,40.48
2017-04-10T06:57:11.741Z,43.45
2017-04-10T06:58:11.085Z,49.03
2017-04-10T06:59:10.349Z,45.68
2017-04-10T07:00:09.690Z,42.13
2017-04-10T07:01:09.761Z,42.42
2017-04-10T07:02:09.108Z,41.25
2017-04-10T07:03:09.236Z,33.78
2017-04-10T07:04:08.564Z,42.92
2017-04-10T07:05:07.869Z,42.02
2017-04-10T07:06:07.792Z,36.03
2017-04-10T07:07:07.156Z,35.45
2017-04-10T07:08:06.428Z,34.40
2017-04-10T07:09:06.272Z,38.95
2017-04-10T07:10:06.320Z,29.97
2017-04-10T07:11:05.661Z,35.40
2017-04-10T07:12:04.954Z,32.83
2017-04-10T07:13:04.993Z,40.68
2017-04-10T07:14:04.286Z,38.25
2017-04-10T07:15:03.562Z,32.40
2017-04-10T07:16:03.605Z,33.60
2017-04-10T07:17:02.880Z,35.83
2017-04-10T07:18:02.270Z,41.77
2017-04-10T07:19:01.581Z,38.27
2017-04-10T07:20:00.892Z,36.93
2017-04-10T07:21:00.283Z,41.08
2017-04-10T07:21:59.737Z,28.33
2017-04-10T07:22:59.107Z,25.02
2017-04-10T07:23:58.524Z,30.35
2017-04-10T07:24:57.967Z,31.95
2017-04-10T07:25:57.310Z,31.00
2017-04-10T07:26:56.630Z,25.77
2017-04-10T07:27:55.965Z,19.42
2017-04-10T07:28:56.134Z,29.82
2017-04-10T07:29:55.520Z,31.07
2017-04-10T07:30:54.886Z,27.45
2017-04-10T07:31:54.398Z,27.82
2017-04-10T07:32:53.803Z,24.57
2017-04-10T07:33:53.189Z,26.17
2017-04-10T07:34:52.602Z,35.30
2017-04-10T07:35:51.967Z,32.60
2017-04-10T07:36:51.357Z,35.27
2017-04-10T07:37:50.761Z,27.05
2017-04-10T07:38:50.180Z,21.82
2017-04-10T07:39:51.107Z,28.63
2017-04-10T07:40:51.229Z,36.58
2017-04-10T07:41:50.608Z,25.60
2017-04-10T07:42:49.980Z,28.03
2017-04-10T07:43:49.648Z,30.35
2017-04-10T07:44:49.007Z,45.62
2017-04-10T07:45:49.112Z,30.20
2017-04-10T07:46:49.190Z,25.60
2017-04-10T07:47:48.705Z,20.88
2017-04-10T07:48:48.803Z,23.53
2017-04-10T07:49:48.260Z,32.62
2017-04-10T07:50:47.649Z,25.58
2017-04-10T07:51:47.065Z,24.50
2017-04-10T07:52:46.783Z,23.65
2017-04-10T07:53:47.039Z,24.97
2017-04-10T07:54:46.467Z,31.55
2017-04-10T07:55:45.848Z,27.33
2017-04-10T07:56:45.207Z,26.35
2017-04-10T07:57:44.664Z,30.43
2017-04-10T07:58:44.086Z,30.25
2017-04-10T07:59:43.446Z,33.52
2017-04-10T08:00:42.870Z,31.12
2017-04-10T08:01:42.283Z,32.30
2017-04-10T08:02:41.644Z,20.38
2017-04-10T08:03:41.725Z,24.13
2017-04-10T08:04:42.165Z,31.18
2017-04-10T08:05:42.326Z,29.53
2017-04-10T08:06:41.765Z,29.80
2017-04-10T08:07:41.400Z,26.43
2017-04-10T08:08:40.791Z,24.05
2017-04-10T08:09:40.209Z,27.62
2017-04-10T08:10:39.643Z,29.93
2017-04-10T08:11:39.107Z,34.43
2017-04-10T08:12:38.677Z,27.27
2017-04-10T08:13:38.643Z,23.67
2017-04-10T08:14:38.145Z,31.48
2017-04-10T08:15:37.977Z,25.52
2017-04-10T08:16:37.428Z,23.97
2017-04-10T08:17:37.583Z,29.38
2017-04-10T08:18:37.021Z,26.48
2017-04-10T08:19:36.458Z,33.18
2017-04-10T08:20:36.123Z,29.97
2017-04-10T08:21:35.596Z,21.70
2017-04-10T08:22:35.072Z,20.08
2017-04-10T08:23:34.503Z,25.27
2017-04-10T08:24:34.275Z,25.17
2017-04-10T08:25:33.795Z,23.87
2017-04-10T08:26:33.171Z,22.53
2017-04-10T08:27:32.567Z,22.83
2017-04-10T08:28:31.977Z,18.22
2017-04-10T08:29:31.417Z,22.38
2017-04-10T08:30:30.863Z,18.07
2017-04-10T08:31:30.232Z,20.02
2017-04-10T08:32:29.602Z,20.18
2017-04-10T08:33:30.835Z,21.37
2017-04-10T08:34:30.252Z,20.57
2017-04-10T08:35:29.604Z,22.62
2017-04-10T08:36:29.014Z,21.18
2017-04-10T08:37:28.427Z,17.17
2017-04-10T08:38:27.810Z,20.87
2017-04-10T08:39:27.257Z,24.23
2017-04-10T08:40:26.618Z,19.68
2017-04-10T08:41:25.926Z,25.78
2017-04-10T08:42:25.288Z,19.75
2017-04-10T08:43:24.661Z,18.43
2017-04-10T08:44:24.087Z,23.23
2017-04-10T08:45:23.583Z,15.18
2017-04-10T08:46:22.944Z,21.50
2017-04-10T08:47:22.351Z,18.93
2017-04-10T08:48:21.804Z,21.57
2017-04-10T08:49:21.131Z,14.53
2017-04-10T08:50:20.499Z,17.78
2017-04-10T08:51:19.905Z,22.68
2017-04-10T08:52:19.311Z,19.05
2017-04-10T08:53:18.745Z,19.17
2017-04-10T08:54:18.140Z,17.07
2017-04-10T08:55:17.603Z,14.82
2017-04-10T08:56:17.309Z,10.48
2017-04-10T08:57:16.638Z,16.38
2017-04-10T08:58:16.055Z,12.43
2017-04-10T08:59:15.419Z,8.63
2017-04-10T09:00:14.945Z,11.53
2017-04-10T09:01:14.301Z,11.37
2017-04-10T09:02:14.337Z,15.43
2017-04-10T09:03:13.882Z,14.68
2017-04-10T09:04:13.303Z,12.38
2017-04-10T09:05:13.126Z,10.57
2017-04-10T09:06:12.505Z,7.92
2017-04-10T09:07:11.946Z,8.25
2017-04-10T09:08:11.275Z,9.32
2017-04-10T09:09:11.352Z,13.42
2017-04-10T09:10:10.631Z,12.67
2017-04-10T09:11:10.056Z,9.13
2017-04-10T09:12:10.068Z,11.38
2017-04-10T09:13:10.061Z,7.68
2017-04-10T09:14:10.123Z,6.35
2017-04-10T09:15:09.485Z,10.63
2017-04-10T09:16:08.911Z,12.72
2017-04-10T09:17:08.172Z,8.08
2017-04-10T09:18:07.498Z,10.55
2017-04-10T09:19:06.885Z,6.55
2017-04-10T09:20:06.166Z,9.68
2017-04-10T09:21:05.533Z,12.15
2017-04-10T09:22:04.834Z,7.88
2017-04-10T09:23:04.117Z,11.68
2017-04-10T09:24:03.560Z,5.50
2017-04-10T09:25:02.895Z,15.10
2017-04-10T09:26:02.236Z,10.55
2017-04-10T09:27:01.588Z,13.77
2017-04-10T09:28:00.873Z,10.77
2017-04-10T09:29:00.156Z,10.75
2017-04-10T09:29:59.433Z,13.30
2017-04-10T09:30:59.504Z,8.08
2017-04-10T09:31:58.769Z,6.65
2017-04-10T09:32:58.061Z,8.58
2017-04-10T09:33:57.285Z,12.70
2017-04-10T09:34:56.579Z,9.38
2017-04-10T09:35:55.885Z,6.50
2017-04-10T09:36:56.013Z,5.83
2017-04-10T09:37:55.332Z,8.90
2017-04-10T09:38:54.855Z,10.93
2017-04-10T09:39:54.248Z,7.70
2017-04-10T09:40:53.662Z,13.07
2017-04-10T09:41:54.410Z,6.98
2017-04-10T09:42:53.823Z,6.60
2017-04-10T09:43:53.265Z,7.02
2017-04-10T09:44:53.337Z,3.27
2017-04-10T09:45:52.761Z,8.28
2017-04-10T09:46:52.090Z,5.72
2017-04-10T09:47:51.445Z,3.83
2017-04-10T09:48:50.778Z,6.10
2017-04-10T09:49:50.095Z,8.15
2017-04-10T09:50:49.365Z,5.42
2017-04-10T09:51:48.671Z,6.43
2017-04-10T09:52:48.008Z,6.77
2017-04-10T09:53:48.141Z,7.08
2017-04-10T09:54:47.706Z,7.30
2017-04-10T09:55:46.974Z,6.27
2017-04-10T09:56:46.529Z,6.08
2017-04-10T09:57:45.891Z,8.70
2017-04-10T09:58:45.952Z,4.03
2017-04-10T09:59:45.270Z,5.27
2017-04-10T10:00:44.685Z,7.40
2017-04-10T10:01:44.982Z,14.48
2017-04-10T10:02:44.314Z,5.22
2017-04-10T10:03:43.743Z,11.78
2017-04-10T10:04:43.098Z,4.90
2017-04-10T10:05:42.491Z,18.05
2017-04-10T10:06:41.918Z,5.17
2017-04-10T10:07:41.190Z,15.43
2017-04-10T10:08:40.573Z,15.72
2017-04-10T10:09:39.844Z,5.70
2017-04-10T10:10:39.130Z,11.40
2017-04-10T10:11:39.142Z,9.87
2017-04-10T10:12:38.464Z,4.33
2017-04-10T10:13:37.763Z,11.58
2017-04-10T10:14:37.083Z,5.72
2017-04-10T10:15:36.460Z,13.03
2017-04-10T10:16:35.822Z,6.32
2017-04-10T10:17:35.109Z,7.63
2017-04-10T10:18:34.409Z,5.10
2017-04-10T10:19:33.762Z,5.03
2017-04-10T10:20:33.772Z,7.82
2017-04-10T10:21:33.933Z,10.85
2017-04-10T10:22:33.351Z,3.80
2017-04-10T10:23:32.796Z,8.48
2017-04-10T10:24:32.165Z,5.62
2017-04-10T10:25:32.276Z,9.23
2017-04-10T10:26:31.973Z,7.70
2017-04-10T10:27:31.334Z,5.02
2017-04-10T10:28:30.724Z,10.33
2017-04-10T10:29:30.074Z,7.67
2017-04-10T10:30:29.345Z,6.58
2017-04-10T10:31:28.710Z,7.45
2017-04-10T10:32:29.217Z,6.08
2017-04-10T10:33:28.632Z,7.72
2017-04-10T10:34:28.671Z,12.40
2017-04-10T10:35:27.970Z,16.58
2017-04-10T10:36:27.310Z,7.00
2017-04-10T10:37:26.694Z,7.20
2017-04-10T10:38:27.031Z,7.10
2017-04-10T10:39:26.338Z,7.47
2017-04-10T10:40:25.613Z,11.10
2017-04-10T10:41:26.432Z,7.10
2017-04-10T10:42:26.481Z,8.15
2017-04-10T10:43:25.712Z,6.93
2017-04-10T10:44:25.988Z,8.50
2017-04-10T10:45:26.050Z,13.17
2017-04-10T10:46:26.045Z,7.17
2017-04-10T10:47:26.154Z,3.23
2017-04-10T10:48:26.161Z,6.30
2017-04-10T10:49:26.185Z,6.43
2017-04-10T10:50:26.388Z,6.53
2017-04-10T10:51:26.514Z,12.20
2017-04-10T10:52:25.826Z,10.63
2017-04-10T10:53:25.114Z,5.48
2017-04-10T10:54:24.405Z,11.47
2017-04-10T10:55:24.460Z,5.18
2017-04-10T10:56:23.735Z,7.03
2017-04-10T10:57:23.135Z,6.92
2017-04-10T10:58:22.447Z,4.12
2017-04-10T10:59:22.570Z,9.90
2017-04-10T11:00:21.877Z,5.03
2017-04-10T11:01:22.239Z,5.97
2017-04-10T11:02:22.506Z,6.32
2017-04-10T11:03:22.794Z,4.62
2017-04-10T11:04:23.012Z,5.67
2017-04-10T11:05:22.330Z,7.27
2017-04-10T11:06:21.715Z,4.62
2017-04-10T11:07:21.021Z,6.80
2017-04-10T11:08:20.340Z,6.38
2017-04-10T11:09:19.630Z,6.15
2017-04-10T11:10:19.057Z,3.92
2017-04-10T11:11:19.963Z,8.63
2017-04-10T11:12:19.574Z,6.13
2017-04-10T11:13:20.433Z,2.38
2017-04-10T11:14:19.744Z,6.25
2017-04-10T11:15:19.038Z,6.32
2017-04-10T11:16:18.447Z,6.38
2017-04-10T11:17:17.736Z,8.77
2017-04-10T11:18:17.149Z,5.90
2017-04-10T11:19:16.446Z,8.78
2017-04-10T11:20:16.552Z,9.43
2017-04-10T11:21:15.873Z,6.88
2017-04-10T11:22:15.170Z,8.03
2017-04-10T11:23:14.526Z,13.12
2017-04-10T11:24:14.655Z,12.37
2017-04-10T11:25:14.620Z,8.07
2017-04-10T11:26:13.907Z,8.72
2017-04-10T11:27:13.184Z,10.60
2017-04-10T11:28:12.540Z,5.33
2017-04-10T11:29:11.873Z,5.43
2017-04-10T11:30:11.178Z,9.72
2017-04-10T11:31:10.505Z,14.18
2017-04-10T11:32:09.788Z,9.73
2017-04-10T11:33:09.088Z,7.03
2017-04-10T11:34:08.734Z,7.98
2017-04-10T11:35:08.067Z,9.83
2017-04-10T11:36:07.427Z,9.55
2017-04-10T11:37:06.997Z,8.93
2017-04-10T11:38:07.468Z,8.07
2017-04-10T11:39:07.668Z,9.07
2017-04-10T11:40:07.707Z,7.40
2017-04-10T11:41:07.009Z,6.27
2017-04-10T11:42:06.354Z,5.83
2017-04-10T11:43:06.436Z,5.88
2017-04-10T11:44:05.784Z,4.22
2017-04-10T11:45:05.078Z,6.20
2017-04-10T11:46:04.544Z,14.90
2017-04-10T11:47:04.695Z,9.62
2017-04-10T11:48:04.183Z,6.68
2017-04-10T11:49:03.650Z,8.08
2017-04-10T11:50:14.326Z,8.62
2017-04-10T11:51:13.915Z,7.63
2017-04-10T11:52:13.194Z,7.58
2017-04-10T11:53:13.783Z,7.48
2017-04-10T11:54:13.179Z,8.15
2017-04-10T11:55:13.326Z,6.62
2017-04-10T11:56:12.634Z,11.25
2017-04-10T11:57:12.131Z,3.35
2017-04-10T11:58:12.310Z,13.45
2017-04-10T11:59:11.864Z,7.15
2017-04-10T12:00:11.422Z,10.97
2017-04-10T12:01:11.730Z,7.98
2017-04-10T12:02:11.134Z,8.78
2017-04-10T12:03:11.726Z,8.85
2017-04-10T12:04:11.290Z,17.33
2017-04-10T12:05:10.624Z,18.80
2017-04-10T12:06:10.241Z,9.25
2017-04-10T12:07:09.640Z,8.52
2017-04-10T12:08:09.883Z,6.60
2017-04-10T12:09:09.297Z,9.90
2017-04-10T12:10:09.386Z,11.17
2017-04-10T12:11:08.738Z,13.60
2017-04-10T12:12:08.058Z,9.00
2017-04-10T12:13:07.408Z,14.22
2017-04-10T12:14:06.806Z,6.93
2017-04-10T12:15:06.119Z,5.92
2017-04-10T12:16:06.034Z,7.12
2017-04-10T12:17:05.492Z,5.15
2017-04-10T12:18:04.803Z,12.20
2017-04-10T12:19:04.189Z,11.30
2017-04-10T12:20:03.861Z,6.43
2017-04-10T12:21:03.288Z,7.82
2017-04-10T12:22:02.805Z,8.23
2017-04-10T12:23:02.149Z,7.35
2017-04-10T12:24:01.703Z,6.15
2017-04-10T12:25:00.998Z,8.88
2017-04-10T12:26:00.358Z,6.37
2017-04-10T12:26:59.814Z,8.10
2017-04-10T12:27:59.120Z,6.45
2017-04-10T12:28:58.449Z,6.93
2017-04-10T12:29:57.738Z,6.10
2017-04-10T12:30:57.769Z,8.75
2017-04-10T12:31:57.800Z,8.77
2017-04-10T12:32:57.214Z,7.73
2017-04-10T12:33:56.518Z,4.10
2017-04-10T12:34:55.804Z,3.43
2017-04-10T12:35:55.726Z,10.58
2017-04-10T12:36:55.163Z,8.17
2017-04-10T12:37:54.484Z,5.82
2017-04-10T12:38:53.849Z,9.17
2017-04-10T12:39:53.967Z,8.17
2017-04-10T12:40:53.685Z,8.40
2017-04-10T12:41:52.974Z,7.98
2017-04-10T12:42:52.397Z,8.82
2017-04-10T12:43:52.074Z,2.93
2017-04-10T12:44:51.503Z,7.12
2017-04-10T12:45:50.775Z,5.60
2017-04-10T12:46:50.069Z,2.65
2017-04-10T12:47:49.482Z,6.20
2017-04-10T12:48:48.823Z,6.47
2017-04-10T12:49:48.209Z,6.02
2017-04-10T12:50:47.489Z,2.70
2017-04-10T12:51:46.805Z,4.60
2017-04-10T12:52:46.650Z,10.05
2017-04-10T12:53:46.692Z,11.37